Time;durP1;ratioP1;P1;durP2;ratioP2;P2;SDS_P1;SDS_P2;PMS_P1;PMS_P2;Temp;Humidity;BMP_temperature;BMP_pressure;BME280_temperature;BME280_humidity;BME280_pressure;Samples;Min_cycle;Max_cycle;Signal;HPM_P1;HPM_P2
2022/11/27 00:01:13;;;;;;;12.60;6.25;;;;;;;4.89;100.00;102461.56;5051935;28;20031;-70
2022/11/27 00:03:39;;;;;;;20.15;7.05;;;;;;;4.97;100.00;102464.44;5051846;28;20029;-70
2022/11/27 00:06:05;;;;;;;20.13;7.57;;;;;;;4.96;100.00;102457.47;5051801;28;20029;-70
2022/11/27 00:08:31;;;;;;;14.13;6.82;;;;;;;4.96;100.00;102462.78;5051353;28;20503;-70
2022/11/27 00:11:02;;;;;;;20.67;8.15;;;;;;;4.95;100.00;102458.41;5051814;28;20110;-70
2022/11/27 00:13:28;;;;;;;16.50;5.85;;;;;;;4.83;100.00;102442.56;5034196;28;20071;-70
2022/11/27 00:15:56;;;;;;;16.70;6.40;;;;;;;4.91;100.00;102455.19;5051675;28;20142;-70
2022/11/27 00:18:21;;;;;;;15.60;6.90;;;;;;;4.86;100.00;102436.19;5051467;28;20077;-70
2022/11/27 00:20:46;;;;;;;18.90;7.25;;;;;;;4.88;100.00;102444.03;5050291;28;20044;-70
2022/11/27 00:23:12;;;;;;;13.50;5.70;;;;;;;4.86;100.00;102443.28;5051398;28;20361;-70
2022/11/27 00:25:37;;;;;;;13.90;6.40;;;;;;;4.81;100.00;102430.44;5051110;28;20479;-70
2022/11/27 00:28:02;;;;;;;15.63;5.60;;;;;;;4.82;100.00;102437.38;5051433;28;20021;-70
2022/11/27 00:30:28;;;;;;;19.58;6.03;;;;;;;4.79;100.00;102435.84;5051386;28;20033;-70
2022/11/27 00:32:53;;;;;;;17.42;6.20;;;;;;;4.75;100.00;102434.41;5051443;28;20040;-70
2022/11/27 00:35:18;;;;;;;14.68;5.78;;;;;;;4.70;100.00;102427.78;5051415;28;20056;-70
2022/11/27 00:37:44;;;;;;;16.77;7.65;;;;;;;4.66;100.00;102426.34;5050943;28;20036;-70
2022/11/27 00:40:09;;;;;;;13.25;5.47;;;;;;;4.68;100.00;102424.41;5050239;28;20037;-70
2022/11/27 00:42:35;;;;;;;17.48;6.22;;;;;;;4.64;100.00;102421.19;5051282;28;20032;-70
2022/11/27 00:45:00;;;;;;;11.90;5.63;;;;;;;4.60;100.00;102411.81;5051016;28;20037;-70
2022/11/27 00:47:25;;;;;;;18.92;7.07;;;;;;;4.56;100.00;102416.50;5051098;28;20036;-70
2022/11/27 00:49:51;;;;;;;17.58;6.43;;;;;;;4.53;100.00;102419.38;5051105;28;20071;-70
2022/11/27 00:52:16;;;;;;;13.35;5.40;;;;;;;4.49;100.00;102415.28;5051110;28;20025;-70
2022/11/27 00:54:42;;;;;;;13.75;5.50;;;;;;;4.47;100.00;102417.19;5050694;28;20028;-70
2022/11/27 00:57:07;;;;;;;19.55;7.22;;;;;;;4.45;100.00;102423.53;5050853;28;20124;-70
2022/11/27 00:59:32;;;;;;;14.65;6.90;;;;;;;4.43;100.00;102417.53;5050444;28;20040;-70
2022/11/27 01:01:58;;;;;;;17.75;5.97;;;;;;;4.42;100.00;102421.16;5050760;28;20035;-70
2022/11/27 01:04:23;;;;;;;15.98;5.88;;;;;;;4.37;100.00;102419.69;5050743;28;20036;-70
2022/11/27 01:06:48;;;;;;;14.00;6.20;;;;;;;4.35;100.00;102404.94;5050831;28;20036;-70
2022/11/27 01:09:15;;;;;;;14.85;5.57;;;;;;;4.32;100.00;102403.38;5050790;28;20055;-70
2022/11/27 01:11:41;;;;;;;20.73;7.85;;;;;;;4.31;100.00;102406.94;5050634;28;20047;-70
2022/11/27 01:14:15;;;;;;;13.45;5.95;;;;;;;4.30;100.00;102407.94;5050543;28;20028;-70
2022/11/27 01:16:41;;;;;;;14.50;5.55;;;;;;;4.26;100.00;102387.97;5050505;28;20591;-70
2022/11/27 01:19:06;;;;;;;18.75;5.75;;;;;;;4.27;100.00;102383.53;5048955;28;20067;-70
2022/11/27 01:21:33;;;;;;;13.65;4.82;;;;;;;4.22;100.00;102373.34;5049078;28;20480;-70
2022/11/27 01:23:59;;;;;;;15.45;6.20;;;;;;;4.26;100.00;102387.97;5050338;28;20060;-70
2022/11/27 01:26:25;;;;;;;17.05;6.68;;;;;;;4.28;100.00;102374.66;5049823;28;20028;-70
2022/11/27 01:28:53;;;;;;;18.95;5.75;;;;;;;4.29;100.00;102381.63;5050204;28;20082;-70
2022/11/27 01:31:22;;;;;;;15.80;5.70;;;;;;;4.31;100.00;102385.00;5050350;28;20103;-70
2022/11/27 01:33:52;;;;;;;21.92;5.88;;;;;;;4.29;100.00;102384.25;5049597;28;20504;-70
2022/11/27 01:36:17;;;;;;;19.45;6.65;;;;;;;4.27;100.00;102376.47;5050073;28;20029;-70
2022/11/27 01:38:42;;;;;;;12.80;5.50;;;;;;;4.23;100.00;102372.38;5050386;28;20068;-70
2022/11/27 01:41:12;;;;;;;17.55;6.45;;;;;;;4.21;100.00;102363.72;5049995;28;20033;-70
2022/11/27 01:43:41;;;;;;;12.63;5.68;;;;;;;4.21;100.00;102358.44;5051036;28;20109;-70
2022/11/27 01:46:27;;;;;;;15.07;6.13;;;;;;;4.18;100.00;102353.41;5049938;28;20021;-70
2022/11/27 01:48:58;;;;;;;14.60;9.13;;;;;;;4.19;100.00;102355.06;5050003;28;20029;-70
2022/11/27 01:51:24;;;;;;;15.30;6.72;;;;;;;4.15;100.00;102356.28;5049763;28;20043;-70
2022/11/27 01:53:51;;;;;;;16.15;7.45;;;;;;;4.18;100.00;102356.03;5049901;28;20024;-70
2022/11/27 01:56:17;;;;;;;15.77;6.30;;;;;;;4.16;100.00;102358.78;5049786;28;20142;-70
2022/11/27 01:58:43;;;;;;;14.02;7.07;;;;;;;4.18;100.00;102359.50;5049804;28;20480;-70
2022/11/27 02:01:09;;;;;;;12.38;5.18;;;;;;;4.20;100.00;102348.00;5049592;28;20017;-70
2022/11/27 02:03:34;;;;;;;12.90;5.63;;;;;;;4.20;100.00;102329.53;5048387;28;20039;-70
2022/11/27 02:05:59;;;;;;;13.02;6.22;;;;;;;4.21;100.00;102332.03;5048420;28;20405;-70
2022/11/27 02:08:25;;;;;;;20.13;8.10;;;;;;;4.24;100.00;102333.59;5049483;28;20036;-70
2022/11/27 02:11:08;;;;;;;17.17;6.95;;;;;;;4.24;100.00;102315.09;5049279;28;20385;-70
2022/11/27 02:13:49;;;;;;;16.83;6.13;;;;;;;4.23;100.00;102309.00;5049632;28;20024;-70
2022/11/27 02:16:30;;;;;;;14.23;5.93;;;;;;;4.22;100.00;102299.41;5049628;28;20480;-70
2022/11/27 02:19:01;;;;;;;19.65;6.43;;;;;;;4.21;100.00;102292.41;5049422;28;20130;-70
2022/11/27 02:21:37;;;;;;;19.45;6.80;;;;;;;4.20;100.00;102279.34;5049613;28;20102;-70
2022/11/27 02:24:20;;;;;;;15.05;6.53;;;;;;;4.19;100.00;102275.84;5049411;28;20036;-70
2022/11/27 02:27:09;;;;;;;15.98;5.28;;;;;;;4.12;100.00;102270.22;5049449;28;20028;-70
2022/11/27 02:29:35;;;;;;;12.00;5.53;;;;;;;4.10;100.00;102260.75;5049216;28;20035;-70
2022/11/27 02:32:14;;;;;;;12.95;5.25;;;;;;;4.05;100.00;102260.25;5049296;28;20538;-70
2022/11/27 02:34:53;;;;;;;16.75;5.43;;;;;;;4.05;100.00;102268.19;5048918;28;20025;-70
2022/11/27 02:37:42;;;;;;;17.80;7.38;;;;;;;4.01;100.00;102277.28;5049375;28;20468;-70
2022/11/27 02:40:13;;;;;;;14.05;5.50;;;;;;;4.01;100.00;102272.00;5049343;28;20043;-70
2022/11/27 02:42:47;;;;;;;14.75;5.45;;;;;;;3.95;100.00;102276.78;5049420;28;20499;-70
2022/11/27 02:45:16;;;;;;;14.93;4.70;;;;;;;3.94;100.00;102280.41;5049236;28;20115;-70
2022/11/27 02:47:45;;;;;;;14.10;6.70;;;;;;;3.95;100.00;102274.16;5049235;28;20095;-70
2022/11/27 02:50:22;;;;;;;9.30;4.40;;;;;;;3.94;100.00;102269.00;5049084;28;20028;-70
2022/11/27 02:52:53;;;;;;;16.27;6.30;;;;;;;3.97;100.00;102270.56;5049386;28;20055;-70
2022/11/27 02:55:23;;;;;;;12.07;5.37;;;;;;;3.95;100.00;102260.94;5049175;28;20535;-70
2022/11/27 02:57:53;;;;;;;14.75;5.30;;;;;;;3.94;100.00;102256.66;5049336;28;20518;-70
2022/11/27 03:00:18;;;;;;;12.13;5.32;;;;;;;3.99;100.00;102266.84;5049037;28;20508;-70
2022/11/27 03:02:55;;;;;;;11.27;5.43;;;;;;;4.01;100.00;102254.38;5051426;28;20025;-70
2022/11/27 03:05:24;;;;;;;17.83;5.20;;;;;;;4.01;100.00;102251.75;5053040;28;20033;-70
2022/11/27 03:07:58;;;;;;;9.15;4.45;;;;;;;4.06;100.00;102256.66;5052881;28;20102;-70
2022/11/27 03:10:52;;;;;;;12.95;4.45;;;;;;;4.08;100.00;102267.94;5052894;28;20147;-70
2022/11/27 03:13:18;;;;;;;10.70;4.07;;;;;;;4.11;100.00;102272.97;5051648;28;20036;-70
2022/11/27 03:16:06;;;;;;;14.60;4.88;;;;;;;4.10;100.00;102269.50;5052842;28;20025;-70
2022/11/27 03:18:57;;;;;;;13.02;4.85;;;;;;;4.17;100.00;102269.88;5052421;28;20052;-70
2022/11/27 03:21:41;;;;;;;10.00;4.00;;;;;;;4.17;100.00;102264.59;5053344;28;20361;-70
2022/11/27 03:24:08;;;;;;;15.32;5.97;;;;;;;4.17;100.00;102254.88;5052393;28;20029;-70
2022/11/27 03:26:34;;;;;;;11.63;5.32;;;;;;;4.22;100.00;102251.00;5052674;28;20029;-70
2022/11/27 03:29:01;;;;;;;11.27;4.90;;;;;;;4.21;100.00;102242.25;5050997;28;20035;-70
2022/11/27 03:31:27;;;;;;;17.65;4.50;;;;;;;4.26;100.00;102242.72;5052525;28;20037;-70
2022/11/27 03:33:53;;;;;;;12.13;4.95;;;;;;;4.23;100.00;102242.16;5051120;28;20032;-70
2022/11/27 03:36:20;;;;;;;12.50;5.35;;;;;;;4.28;100.00;102245.25;5052472;28;20036;-70
2022/11/27 03:38:47;;;;;;;12.45;4.13;;;;;;;4.27;100.00;102256.78;5051799;28;20037;-70
2022/11/27 03:41:30;;;;;;;11.55;3.95;;;;;;;4.31;100.00;102245.84;5052362;28;20507;-70
2022/11/27 03:44:25;;;;;;;13.43;4.65;;;;;;;4.34;100.00;102248.25;5052148;28;20525;-70
2022/11/27 03:47:04;;;;;;;15.80;5.53;;;;;;;4.34;100.00;102244.78;5051645;28;20033;-70
2022/11/27 03:50:02;;;;;;;7.45;3.40;;;;;;;4.36;100.00;102240.22;5052126;28;20112;-70
2022/11/27 03:52:41;;;;;;;9.18;4.10;;;;;;;4.35;100.00;102233.25;5052123;28;20099;-70
2022/11/27 03:55:28;;;;;;;8.05;3.05;;;;;;;4.35;100.00;102227.97;5052229;28;20108;-69
2022/11/27 03:58:01;;;;;;;8.20;4.18;;;;;;;4.35;100.00;102227.97;5052203;28;20107;-69
2022/11/27 04:00:34;;;;;;;6.97;3.60;;;;;;;4.35;100.00;102239.38;5052098;28;20033;-69
2022/11/27 04:03:02;;;;;;;7.40;3.55;;;;;;;4.35;100.00;102228.81;5051663;28;20040;-69
2022/11/27 04:05:28;;;;;;;8.68;3.25;;;;;;;4.36;100.00;102227.00;5051384;28;20099;-69
2022/11/27 04:07:53;;;;;;;10.75;4.00;;;;;;;4.35;100.00;102231.44;5051344;28;20482;-69
2022/11/27 04:10:18;;;;;;;11.65;4.13;;;;;;;4.35;100.00;102228.81;5051852;28;20048;-69
2022/11/27 04:12:44;;;;;;;11.23;3.63;;;;;;;4.37;100.00;102226.03;5050437;28;20036;-69
2022/11/27 04:15:10;;;;;;;11.80;3.90;;;;;;;4.38;100.00;102225.09;5051733;28;20082;-69
2022/11/27 04:17:36;;;;;;;9.52;3.00;;;;;;;4.36;100.00;102221.72;5051598;28;20227;-69
2022/11/27 04:20:02;;;;;;;10.13;3.65;;;;;;;4.38;100.00;102228.56;5051221;28;20597;-69
2022/11/27 04:22:27;;;;;;;8.02;3.10;;;;;;;4.38;100.00;102222.44;5051483;28;20052;-69
2022/11/27 04:24:53;;;;;;;11.45;2.95;;;;;;;4.39;100.00;102222.31;5050268;28;20476;-69
2022/11/27 04:27:18;;;;;;;11.00;4.38;;;;;;;4.44;100.00;102236.97;5051649;28;20056;-69
2022/11/27 04:29:43;;;;;;;8.30;2.95;;;;;;;4.44;100.00;102232.50;5051286;28;20120;-69
2022/11/27 04:32:09;;;;;;;8.73;3.53;;;;;;;4.45;100.00;102231.53;5051059;28;20040;-69
2022/11/27 04:34:34;;;;;;;10.02;3.95;;;;;;;4.47;100.00;102237.53;5051422;28;20464;-69
2022/11/27 04:36:59;;;;;;;10.20;3.20;;;;;;;4.46;100.00;102232.41;5050983;28;20500;-69
2022/11/27 04:39:25;;;;;;;9.80;3.60;;;;;;;4.48;100.00;102233.97;5051039;28;20033;-69
2022/11/27 04:41:50;;;;;;;6.65;3.17;;;;;;;4.51;100.00;102227.59;5049907;28;20423;-69
2022/11/27 04:44:16;;;;;;;8.30;2.95;;;;;;;4.49;100.00;102227.69;5051182;28;20064;-69
2022/11/27 04:46:42;;;;;;;7.78;2.65;;;;;;;4.46;100.00;102227.94;5051076;28;20039;-69
2022/11/27 04:49:08;;;;;;;5.65;3.70;;;;;;;4.47;100.00;102228.78;5051086;28;20163;-69
2022/11/27 04:51:34;;;;;;;11.93;4.00;;;;;;;4.50;100.00;102229.38;5051066;28;20021;-69
2022/11/27 04:53:59;;;;;;;14.13;4.00;;;;;;;4.51;100.00;102233.72;5051070;28;20027;-69
2022/11/27 04:56:24;;;;;;;8.65;3.20;;;;;;;4.51;100.00;102219.66;5051111;28;20031;-69
2022/11/27 04:58:50;;;;;;;6.90;3.00;;;;;;;4.48;100.00;102210.19;5050968;28;20036;-69
2022/11/27 05:01:15;;;;;;;7.57;2.90;;;;;;;4.51;100.00;102211.75;5050774;28;20078;-69
2022/11/27 05:03:40;;;;;;;8.23;3.58;;;;;;;4.47;100.00;102187.34;5050644;28;20051;-69
2022/11/27 05:06:06;;;;;;;9.13;3.97;;;;;;;4.50;100.00;102196.84;5049449;28;20029;-69
2022/11/27 05:08:32;;;;;;;6.43;2.88;;;;;;;4.47;100.00;102178.59;5050726;28;20060;-69
2022/11/27 05:11:02;;;;;;;7.45;2.90;;;;;;;4.46;100.00;102190.97;5050690;28;20036;-69
2022/11/27 05:13:28;;;;;;;15.25;3.80;;;;;;;4.45;100.00;102191.09;5050488;28;20457;-69
2022/11/27 05:15:53;;;;;;;13.50;3.17;;;;;;;4.35;100.00;102173.34;5050570;28;20114;-69
2022/11/27 05:18:18;;;;;;;7.97;2.90;;;;;;;4.46;100.00;102182.22;5050526;28;20025;-69
2022/11/27 05:20:44;;;;;;;13.85;4.20;;;;;;;4.46;100.00;102176.94;5050214;28;20119;-69
2022/11/27 05:23:09;;;;;;;8.30;3.38;;;;;;;4.47;100.00;102178.59;5049247;28;20044;-69
2022/11/27 05:25:34;;;;;;;10.75;2.88;;;;;;;4.49;100.00;102171.41;5049791;28;20029;-69
2022/11/27 05:28:00;;;;;;;7.18;3.03;;;;;;;4.50;100.00;102178.34;5050537;28;20044;-69
2022/11/27 05:30:25;;;;;;;11.65;2.72;;;;;;;4.49;100.00;102168.75;5050029;28;20476;-69
2022/11/27 05:32:50;;;;;;;6.53;2.70;;;;;;;4.54;100.00;102167.41;5048143;28;20486;-69
2022/11/27 05:35:16;;;;;;;9.02;2.80;;;;;;;4.55;100.00;102163.78;5050266;28;20555;-69
2022/11/27 05:37:41;;;;;;;11.60;4.05;;;;;;;4.58;100.00;102165.34;5050225;28;20483;-69
2022/11/27 05:40:07;;;;;;;8.45;2.70;;;;;;;4.60;100.00;102161.63;5050207;28;20064;-69
2022/11/27 05:42:32;;;;;;;12.43;3.55;;;;;;;4.59;100.00;102148.56;5049868;28;20476;-69
2022/11/27 05:44:58;;;;;;;5.38;2.67;;;;;;;4.63;100.00;102151.78;5050672;28;20203;-69
2022/11/27 05:47:23;;;;;;;11.35;2.60;;;;;;;4.64;100.00;102153.44;5050348;28;20033;-69
2022/11/27 05:49:48;;;;;;;10.73;4.15;;;;;;;4.65;100.00;102145.41;5048697;28;20068;-69
2022/11/27 05:52:14;;;;;;;5.15;2.30;;;;;;;4.70;100.00;102156.44;5048670;28;20037;-69
2022/11/27 05:54:39;;;;;;;7.90;2.83;;;;;;;4.72;100.00;102145.75;5048542;28;20180;-69
2022/11/27 05:57:04;;;;;;;7.82;2.78;;;;;;;4.67;100.00;102134.72;5049749;28;20025;-69
2022/11/27 05:59:30;;;;;;;7.50;4.00;;;;;;;4.76;100.00;102144.50;5049667;28;20058;-69
2022/11/27 06:01:55;;;;;;;9.02;3.28;;;;;;;4.73;100.00;102134.19;5048995;28;20025;-69
2022/11/27 06:04:20;;;;;;;9.18;2.88;;;;;;;4.78;100.00;102129.38;5049914;28;20155;-69
2022/11/27 06:06:46;;;;;;;8.57;2.45;;;;;;;4.80;100.00;102123.00;5049717;28;20159;-69
2022/11/27 06:09:12;;;;;;;9.80;3.83;;;;;;;4.73;100.00;102116.53;5049740;28;20039;-69
2022/11/27 06:11:37;;;;;;;8.20;2.97;;;;;;;4.81;100.00;102126.47;5049702;28;20400;-69
2022/11/27 06:14:03;;;;;;;13.38;3.17;;;;;;;4.80;100.00;102125.63;5049550;28;20029;-69
2022/11/27 06:16:28;;;;;;;11.65;3.42;;;;;;;4.84;100.00;102131.50;5048301;28;20040;-69
2022/11/27 06:18:54;;;;;;;12.93;3.42;;;;;;;4.84;100.00;102127.03;5049538;28;20468;-69
2022/11/27 06:21:22;;;;;;;12.07;3.78;;;;;;;4.84;100.00;102120.91;5049478;28;20410;-69
2022/11/27 06:23:47;;;;;;;9.43;3.88;;;;;;;4.89;100.00;102123.19;5049498;28;20025;-69
2022/11/27 06:26:21;;;;;;;8.35;2.75;;;;;;;4.90;100.00;102124.84;5049301;28;20063;-69
2022/11/27 06:28:49;;;;;;;12.05;3.20;;;;;;;4.89;100.00;102107.31;5049309;28;20032;-69
2022/11/27 06:31:26;;;;;;;9.25;3.60;;;;;;;4.91;100.00;102106.22;5049376;28;20093;-69
2022/11/27 06:33:53;;;;;;;9.23;3.67;;;;;;;4.92;100.00;102105.25;5048592;28;20025;-69
2022/11/27 06:36:20;;;;;;;8.30;3.30;;;;;;;4.92;100.00;102105.25;5049262;28;20365;-69
2022/11/27 06:38:45;;;;;;;12.15;3.95;;;;;;;4.95;100.00;102118.25;5052094;28;20593;-69
2022/11/27 06:41:16;;;;;;;8.90;3.60;;;;;;;4.96;100.00;102113.78;5053255;28;20037;-69
2022/11/27 06:43:41;;;;;;;7.82;3.35;;;;;;;4.96;100.00;102113.78;5052842;28;20032;-69
2022/11/27 06:46:11;;;;;;;8.40;3.53;;;;;;;5.00;100.00;102115.19;5052162;28;20047;-69
2022/11/27 06:48:36;;;;;;;13.73;3.90;;;;;;;5.03;100.00;102117.56;5053188;28;20104;-69
2022/11/27 06:51:04;;;;;;;12.18;4.25;;;;;;;5.05;100.00;102120.94;5053257;28;20115;-69
2022/11/27 06:53:32;;;;;;;12.10;4.40;;;;;;;5.07;100.00;102118.16;5053178;28;20036;-69
2022/11/27 06:55:57;;;;;;;9.30;4.32;;;;;;;5.08;100.00;102120.66;5053168;28;20033;-69
2022/11/27 06:58:23;;;;;;;10.32;4.60;;;;;;;5.08;100.00;102119.84;5053304;28;20439;-69
2022/11/27 07:00:49;;;;;;;10.38;3.85;;;;;;;5.08;100.00;102115.38;5053048;28;20427;-69
2022/11/27 07:03:14;;;;;;;13.77;4.53;;;;;;;5.07;100.00;102112.88;5051780;28;20075;-69
2022/11/27 07:05:40;;;;;;;11.30;3.70;;;;;;;5.07;100.00;102111.06;5053008;28;20120;-69
2022/11/27 07:08:05;;;;;;;12.05;4.05;;;;;;;5.07;100.00;102105.78;5052838;28;20052;-69
2022/11/27 07:10:35;;;;;;;8.48;4.28;;;;;;;5.07;100.00;102108.41;5052998;28;20029;-68
2022/11/27 07:13:00;;;;;;;10.68;3.83;;;;;;;5.04;100.00;102103.41;5053007;28;20040;-69
2022/11/27 07:15:26;;;;;;;12.13;4.00;;;;;;;5.02;100.00;102097.41;5052880;28;20025;-68
2022/11/27 07:17:51;;;;;;;10.63;3.92;;;;;;;5.00;100.00;102089.63;5052758;28;20033;-69
2022/11/27 07:20:16;;;;;;;9.93;4.25;;;;;;;4.99;100.00;102076.50;5052411;28;20067;-68
2022/11/27 07:22:42;;;;;;;9.00;3.80;;;;;;;4.98;100.00;102082.78;5052685;28;20047;-69
2022/11/27 07:25:07;;;;;;;9.75;3.65;;;;;;;4.95;100.00;102077.72;5052608;28;20545;-69
2022/11/27 07:27:32;;;;;;;13.00;4.45;;;;;;;4.95;100.00;102075.06;5051454;28;20059;-69
2022/11/27 07:29:58;;;;;;;10.73;4.75;;;;;;;4.96;100.00;102069.69;5052600;28;20685;-69
2022/11/27 07:32:23;;;;;;;22.08;7.35;;;;;;;4.95;100.00;102068.00;5052575;28;20120;-69
2022/11/27 07:34:48;;;;;;;14.02;4.85;;;;;;;4.94;100.00;102073.41;5052061;28;20484;-69
2022/11/27 07:37:14;;;;;;;10.70;4.25;;;;;;;4.92;100.00;102064.78;5052649;28;20500;-68
2022/11/27 07:39:39;;;;;;;13.07;6.25;;;;;;;4.91;100.00;102058.66;5052714;28;20575;-69
2022/11/27 07:42:04;;;;;;;9.45;4.18;;;;;;;4.88;100.00;102048.34;5052362;28;20060;-69
2022/11/27 07:44:30;;;;;;;12.70;4.63;;;;;;;4.89;100.00;102049.16;5051417;28;20033;-69
2022/11/27 07:46:55;;;;;;;11.45;4.70;;;;;;;4.88;100.00;102050.16;5052175;28;20064;-69
2022/11/27 07:49:20;;;;;;;14.65;6.22;;;;;;;4.76;100.00;102039.63;5051734;28;20052;-69
2022/11/27 07:51:46;;;;;;;12.02;4.15;;;;;;;4.77;100.00;102037.84;5052211;28;20048;-68
2022/11/27 07:54:11;;;;;;;13.20;4.47;;;;;;;4.82;100.00;102047.06;5050879;28;20025;-68
2022/11/27 07:56:36;;;;;;;15.05;6.05;;;;;;;4.81;100.00;102048.00;5050754;28;20087;-68
2022/11/27 07:59:02;;;;;;;16.58;5.82;;;;;;;4.81;100.00;102037.44;5052052;28;20083;-68
2022/11/27 08:01:27;;;;;;;12.95;5.65;;;;;;;4.81;100.00;102031.31;5052129;28;20040;-68
2022/11/27 08:03:52;;;;;;;18.40;5.57;;;;;;;4.80;100.00;102032.28;5050552;28;20473;-68
2022/11/27 08:06:23;;;;;;;12.10;5.25;;;;;;;4.79;100.00;102020.03;5051977;28;20043;-68
2022/11/27 08:08:49;;;;;;;15.60;5.88;;;;;;;4.77;100.00;102009.59;5051672;28;20044;-68
2022/11/27 08:11:15;;;;;;;12.50;5.10;;;;;;;4.79;100.00;102012.97;5050297;28;20622;-69
2022/11/27 08:13:41;;;;;;;14.95;6.20;;;;;;;4.78;100.00;102008.63;5051129;28;20094;-69
2022/11/27 08:16:06;;;;;;;21.92;6.70;;;;;;;4.76;100.00;101993.88;5049659;28;20033;-68
2022/11/27 08:18:32;;;;;;;17.15;6.57;;;;;;;4.78;100.00;101995.41;5051662;28;20095;-68
2022/11/27 08:20:59;;;;;;;18.20;5.30;;;;;;;4.80;100.00;102001.41;5051093;28;20045;-68
2022/11/27 08:23:24;;;;;;;14.77;6.53;;;;;;;4.79;100.00;102005.03;5050110;28;20091;-68
2022/11/27 08:25:49;;;;;;;15.75;6.22;;;;;;;4.82;100.00;101993.34;5051496;28;20037;-70
2022/11/27 08:28:15;;;;;;;16.77;6.95;;;;;;;4.84;100.00;101994.88;5050197;28;20116;-69
2022/11/27 08:30:40;;;;;;;26.95;7.82;;;;;;;4.85;100.00;101985.16;5050105;28;20548;-69
2022/11/27 08:33:05;;;;;;;10.85;5.00;;;;;;;4.91;100.00;101997.84;5033586;28;20518;-68
2022/11/27 08:35:31;;;;;;;12.68;5.28;;;;;;;4.91;100.00;101991.72;5051317;28;20480;-68
2022/11/27 08:37:56;;;;;;;11.68;5.07;;;;;;;4.96;100.00;101986.88;5049803;28;20060;-68
2022/11/27 08:40:21;;;;;;;17.17;7.03;;;;;;;4.99;100.00;101986.63;5051107;28;20574;-68
2022/11/27 08:42:47;;;;;;;13.98;5.15;;;;;;;4.98;100.00;101977.84;5051269;28;20381;-68
2022/11/27 08:45:12;;;;;;;15.10;5.57;;;;;;;5.02;100.00;101996.94;5050873;28;20127;-69
2022/11/27 08:47:38;;;;;;;15.85;6.15;;;;;;;5.05;100.00;101989.56;5050963;28;20025;-68
2022/11/27 08:50:03;;;;;;;14.13;5.72;;;;;;;5.08;100.00;101996.38;5051196;28;20135;-68
2022/11/27 08:52:29;;;;;;;12.35;5.38;;;;;;;5.10;100.00;101983.03;5050783;28;20037;-68
2022/11/27 08:54:54;;;;;;;12.18;5.47;;;;;;;5.13;100.00;101988.06;5032893;28;20495;-69
2022/11/27 08:57:20;;;;;;;13.65;5.55;;;;;;;5.17;100.00;101998.25;5051013;28;20113;-72
2022/11/27 08:59:45;;;;;;;14.18;6.03;;;;;;;5.08;100.00;101969.94;5049900;28;20025;-70
2022/11/27 09:02:12;;;;;;;13.15;4.60;;;;;;;5.23;100.00;101986.31;5050835;28;20115;-70
2022/11/27 09:04:37;;;;;;;13.32;5.53;;;;;;;5.24;100.00;101982.72;5050735;28;20370;-70
2022/11/27 09:07:02;;;;;;;10.80;5.68;;;;;;;5.27;100.00;101977.97;5050542;28;20029;-70
2022/11/27 09:09:28;;;;;;;15.32;5.60;;;;;;;5.32;100.00;101990.81;5050653;28;20153;-70
2022/11/27 09:11:54;;;;;;;15.70;5.93;;;;;;;5.32;100.00;101987.28;5050702;28;20396;-70
2022/11/27 09:14:19;;;;;;;14.80;7.50;;;;;;;5.39;100.00;101991.09;5049293;28;20033;-70
2022/11/27 09:16:44;;;;;;;13.73;6.35;;;;;;;5.42;100.00;101996.09;5049251;28;20029;-70
2022/11/27 09:19:10;;;;;;;15.32;6.95;;;;;;;5.46;100.00;102000.16;5050479;28;20217;-70
2022/11/27 09:21:37;;;;;;;13.48;5.97;;;;;;;5.51;100.00;102003.25;5050510;28;20024;-70
2022/11/27 09:24:03;;;;;;;15.52;6.57;;;;;;;5.52;100.00;101996.97;5050395;28;20041;-70
2022/11/27 09:26:29;;;;;;;12.00;6.05;;;;;;;5.53;100.00;101995.16;5049318;28;20051;-70
2022/11/27 09:28:57;;;;;;;13.73;6.03;;;;;;;5.52;100.00;101999.63;5050363;28;20477;-69
2022/11/27 09:31:22;;;;;;;13.48;5.93;;;;;;;5.55;100.00;101994.06;5050066;28;20124;-76
2022/11/27 09:33:48;;;;;;;14.85;6.00;;;;;;;5.60;100.00;101991.00;5049077;28;20104;-71
2022/11/27 09:36:16;;;;;;;16.23;6.30;;;;;;;5.63;100.00;102006.59;5049968;28;20133;-71
2022/11/27 09:38:42;;;;;;;11.88;5.72;;;;;;;5.64;100.00;101997.72;5049790;28;20029;-71
2022/11/27 09:41:10;;;;;;;14.32;5.63;;;;;;;5.66;100.00;102001.91;5050173;28;20522;-71
2022/11/27 09:43:43;;;;;;;15.30;5.65;;;;;;;5.67;100.00;102000.09;5050005;28;20124;-71
2022/11/27 09:46:16;;;;;;;14.77;5.35;;;;;;;5.68;100.00;101996.44;5049929;28;20112;-71
2022/11/27 09:48:47;;;;;;;10.70;5.63;;;;;;;5.68;100.00;101992.00;5049324;28;20029;-71
2022/11/27 09:51:27;;;;;;;15.33;8.20;;;;;;;5.68;100.00;101997.28;5050054;28;20108;-71
2022/11/27 09:54:01;;;;;;;20.33;6.55;;;;;;;5.71;100.00;101989.09;5049963;28;20024;-71
2022/11/27 09:56:28;;;;;;;14.30;6.85;;;;;;;5.70;100.00;101995.34;5049527;28;20579;-71
2022/11/27 09:58:58;;;;;;;16.00;7.00;;;;;;;5.74;100.00;101992.41;5049834;28;20025;-71
2022/11/27 10:01:29;;;;;;;15.30;7.15;;;;;;;5.74;100.00;101980.03;5049459;28;20033;-71
2022/11/27 10:03:55;;;;;;;15.70;6.38;;;;;;;5.71;100.00;101973.22;5047818;28;20112;-71
2022/11/27 10:06:39;;;;;;;17.60;7.45;;;;;;;5.78;100.00;101980.59;5049785;28;20369;-71
2022/11/27 10:09:33;;;;;;;17.35;6.13;;;;;;;5.81;100.00;101972.38;5049578;28;20090;-71
2022/11/27 10:12:33;;;;;;;12.70;5.30;;;;;;;5.84;100.00;101959.72;5049885;28;20329;-70
2022/11/27 10:15:29;;;;;;;13.48;7.03;;;;;;;5.86;100.00;101954.28;5049603;28;20028;-71
2022/11/27 10:18:05;;;;;;;15.38;6.00;;;;;;;5.86;100.00;101943.69;5049553;28;20060;-71
2022/11/27 10:20:43;;;;;;;16.48;6.22;;;;;;;5.89;100.00;101944.25;5049610;28;20059;-71
2022/11/27 10:23:16;;;;;;;14.02;5.25;;;;;;;5.89;100.00;101938.97;5048044;28;20167;-71
2022/11/27 10:25:49;;;;;;;11.60;5.30;;;;;;;5.90;100.00;101930.03;5049366;28;21070;-71
2022/11/27 10:28:39;;;;;;;13.93;6.07;;;;;;;5.93;100.00;101929.78;5048174;28;20452;-71
2022/11/27 10:31:17;;;;;;;16.08;6.28;;;;;;;5.97;100.00;101924.19;5049455;28;20047;-69
2022/11/27 10:33:48;;;;;;;12.45;5.63;;;;;;;5.97;100.00;101924.19;5049375;28;20033;-69
2022/11/27 10:36:34;;;;;;;15.02;6.70;;;;;;;5.99;100.00;101924.91;5049333;28;20036;-69
2022/11/27 10:39:01;;;;;;;13.80;5.22;;;;;;;6.06;100.00;101921.56;5049164;28;20033;-69
2022/11/27 10:41:31;;;;;;;15.80;6.20;;;;;;;6.08;100.00;101916.97;5049383;28;20039;-70
2022/11/27 10:44:02;;;;;;;13.63;5.88;;;;;;;6.11;100.00;101926.44;5049562;28;20047;-69
2022/11/27 10:46:34;;;;;;;17.13;6.28;;;;;;;6.12;100.00;101918.34;5049254;28;20067;-69
2022/11/27 10:48:59;;;;;;;16.52;7.53;;;;;;;6.09;100.00;101918.63;5048946;28;20021;-69
2022/11/27 10:51:32;;;;;;;13.35;5.40;;;;;;;6.09;100.00;101902.72;5047845;28;20083;-69
2022/11/27 10:54:00;;;;;;;15.25;6.45;;;;;;;6.10;100.00;101907.06;5049269;28;20086;-69
2022/11/27 10:56:47;;;;;;;18.85;8.13;;;;;;;6.09;100.00;101894.78;5049214;28;20029;-69
2022/11/27 10:59:20;;;;;;;17.35;6.68;;;;;;;6.09;100.00;101888.66;5047832;28;20059;-69
2022/11/27 11:01:48;;;;;;;16.60;7.72;;;;;;;6.06;100.00;101879.19;5049033;28;20930;-69
2022/11/27 11:04:18;;;;;;;16.00;5.53;;;;;;;6.01;100.00;101876.13;5049125;28;20473;-69
2022/11/27 11:06:46;;;;;;;13.88;6.07;;;;;;;6.12;100.00;101883.91;5048966;28;20032;-69
2022/11/27 11:09:21;;;;;;;14.57;5.80;;;;;;;6.13;100.00;101890.88;5048979;28;20040;-71
2022/11/27 11:11:47;;;;;;;15.80;7.18;;;;;;;6.11;100.00;101876.94;5048978;28;20074;-70
2022/11/27 11:14:21;;;;;;;16.13;7.47;;;;;;;6.14;100.00;101874.00;5049102;28;20025;-70
2022/11/27 11:16:47;;;;;;;17.58;8.30;;;;;;;6.13;100.00;101871.50;5049014;28;20029;-71
2022/11/27 11:19:34;;;;;;;15.52;6.32;;;;;;;6.14;100.00;101862.59;5048870;28;20033;-69
2022/11/27 11:22:08;;;;;;;18.13;6.70;;;;;;;6.13;100.00;101843.22;5042366;28;20025;-70
2022/11/27 11:24:38;;;;;;;16.67;6.05;;;;;;;6.12;100.00;101843.34;5046182;28;20017;-69
2022/11/27 11:27:11;;;;;;;16.73;7.13;;;;;;;6.14;100.00;101842.22;5046867;28;20032;-70